Roland, AR (72135)

9:38 PM CST on November 22, 2014 (GMT -0600)
Walnut Grove | Change Station
CLOSE
Current Station
Personal Weather Station
Location: Little Rock, AR
Elevation: 413 ft
Nearby Weather Stations

Elev 413 ft 34.77 °N, 92.52 °W | Updated 1 second ago

Overcast
Overcast
56.5 °F
Feels Like 56.5 °F
N
5.4
Wind Variable Wind from SSE
Gusts 5.4 mph

Today
High -- | Low -- °F
--% Chance of Precip.
Yesterday
High -- | Low -- °F
Precip. -- in
6:51 AM 5:01 PM
New Moon, 0% visible
Pressure 29.95 in
Visibility 10.0 miles
Clouds Mostly Cloudy 5000 ft
Mostly Cloudy 10000 ft
Overcast 25000 ft
Dew Point 53 °F
Humidity 87%
Rainfall 0.00 in
Snow Depth Not available.
UV 0 out of 12
Pollen 3.10 out of 12
Air Quality Not available.
Flu Activity Not available.
METAR KLIT 230253Z 15006KT 10SM BKN050 BKN100 OVC250 15/12 A2995 RMK AO2 SLP142 T01500117 57017

More Conditions Fewer Conditions

Pressure 29.95 in
Visibility 10.0 miles
Clouds Mostly Cloudy 5000 ft
Mostly Cloudy 10000 ft
Overcast 25000 ft
Dew Point 53 °F
Humidity 87%
Rainfall 0.00 in
Snow Depth Not available.
UV 0 out of 12
Pollen 3.10 out of 12
Air Quality Not available.
Flu Activity Not available.
METAR KLIT 230253Z 15006KT 10SM BKN050 BKN100 OVC250 15/12 A2995 RMK AO2 SLP142 T01500117 57017

More Conditions Fewer Conditions

10-Day Weather Forecast

Almanac

Astronomy

Nov. 22, 2014 Rise Set
Actual Time
Civil Twilight
Nautical Twilight
Astronomical Twilight
Moon
Length of Visible Light
Length of Day
Tomorrow will be .
, % of the Moon is Illuminated

Today's Extremes

State Highs State Lows

Community

WunderPhotos

Upload Photos

1,772,991 photos uploaded!

WunderBlogs® & News

Nearby

Air Quality

  Air Quality AQ Index Pollutant
Not available.

Snow Depth

Station Depth Elevation

Earthquake Activity

City Distance Mag. Time & Date
Minimum magnitude displayed is 2.5.

Coastal Water Temperatures

Place Temperature

Nearby Weather Stations